Time;durP1;ratioP1;P1;durP2;ratioP2;P2;SDS_P1;SDS_P2;PMS_P1;PMS_P2;Temp;Humidity;BMP_temperature;BMP_pressure;BME280_temperature;BME280_humidity;BME280_pressure;Samples;Min_cycle;Max_cycle;Signal;HPM_P1;HPM_P2
2021/01/14 00:02:41;;;;;;;17.48;7.00;;;;;;;;;;5115285;28;20211;-56
2021/01/14 00:05:19;;;;;;;13.48;6.40;;;;;;;;;;5112082;28;20861;-51
2021/01/14 00:10:50;;;;;;;17.70;7.07;;;;;;;;;;5107550;28;20226;-54
2021/01/14 00:13:17;;;;;;;12.43;6.28;;;;;;;;;;5114589;28;20218;-46
2021/01/14 00:15:47;;;;;;;18.38;7.50;;;;;;;;;;5115102;28;20211;-51
2021/01/14 00:18:24;;;;;;;18.98;6.70;;;;;;;;;;5115346;28;20199;-50
2021/01/14 00:20:50;;;;;;;17.83;6.18;;;;;;;;;;5114706;28;20194;-54
2021/01/14 00:23:22;;;;;;;19.73;7.10;;;;;;;;;;5114972;28;20215;-50
2021/01/14 00:26:12;;;;;;;16.05;6.72;;;;;;;;;;5113578;28;20221;-56
2021/01/14 00:28:40;;;;;;;11.73;6.32;;;;;;;;;;5115744;28;20203;-58
2021/01/14 00:31:29;;;;;;;17.98;7.32;;;;;;;;;;5113751;28;20242;-51
2021/01/14 00:34:08;;;;;;;13.45;6.57;;;;;;;;;;5102276;28;20199;-57
2021/01/14 00:39:25;;;;;;;10.68;6.00;;;;;;;;;;5115696;28;20196;-51
2021/01/14 00:41:54;;;;;;;12.02;6.43;;;;;;;;;;5115816;28;20568;-56
2021/01/14 00:44:28;;;;;;;8.65;5.68;;;;;;;;;;5116347;28;20194;-47
2021/01/14 00:46:59;;;;;;;14.30;5.13;;;;;;;;;;5116676;28;20234;-51
2021/01/14 00:49:27;;;;;;;11.82;5.65;;;;;;;;;;5113913;28;20227;-57
2021/01/14 00:51:58;;;;;;;8.32;4.30;;;;;;;;;;5115908;28;20222;-54
2021/01/14 00:54:25;;;;;;;13.40;6.20;;;;;;;;;;5115972;28;20203;-51
2021/01/14 00:57:02;;;;;;;8.82;5.18;;;;;;;;;;5114202;28;20236;-53
2021/01/14 00:59:29;;;;;;;11.43;5.45;;;;;;;;;;5116230;28;20191;-51
2021/01/14 01:01:59;;;;;;;23.48;6.38;;;;;;;;;;5115178;28;20199;-58
2021/01/14 01:04:27;;;;;;;27.73;6.20;;;;;;;;;;5111190;28;20214;-53
2021/01/14 01:07:03;;;;;;;10.40;4.97;;;;;;;;;;5055421;28;20189;-48
2021/01/14 01:09:47;;;;;;;13.57;4.63;;;;;;;;;;5056032;28;20197;-53
2021/01/14 01:12:31;;;;;;;14.80;4.60;;;;;;;;;;5054740;28;20283;-56
2021/01/14 01:14:58;;;;;;;15.90;4.18;;;;;;;;;;5055918;28;20212;-55
2021/01/14 01:17:35;;;;;;;6.75;3.00;;;;;;;;;;5056132;28;20204;-55
2021/01/14 01:20:08;;;;;;;18.70;3.75;;;;;;;;;;5055480;28;20202;-58
2021/01/14 01:22:47;;;;;;;8.35;3.58;;;;;;;;;;5055324;28;20217;-54
2021/01/14 01:25:14;;;;;;;14.07;3.15;;;;;;;;;;5048440;28;20220;-54
2021/01/14 01:28:01;;;;;;;5.20;2.28;;;;;;;;;;5054920;28;20202;-54
2021/01/14 01:30:56;;;;;;;10.13;1.95;;;;;;;;;;5050431;28;20209;-53
2021/01/14 01:33:26;;;;;;;7.07;2.60;;;;;;;;;;5039714;28;20198;-51
2021/01/14 01:35:53;;;;;;;6.90;2.03;;;;;;;;;;5039905;28;20208;-49
2021/01/14 01:38:21;;;;;;;4.85;1.65;;;;;;;;;;5039848;28;20197;-54
2021/01/14 01:40:54;;;;;;;6.53;1.75;;;;;;;;;;5039668;28;20206;-55
2021/01/14 01:43:49;;;;;;;3.97;1.50;;;;;;;;;;5039571;28;20194;-48
2021/01/14 01:46:27;;;;;;;9.20;2.22;;;;;;;;;;5039413;28;20205;-56
2021/01/14 01:48:56;;;;;;;6.88;1.67;;;;;;;;;;5058865;28;20205;-58
2021/01/14 01:51:56;;;;;;;9.15;1.63;;;;;;;;;;5058432;28;20293;-53
2021/01/14 01:54:25;;;;;;;6.63;1.77;;;;;;;;;;5095252;28;20219;-49
2021/01/14 01:56:52;;;;;;;6.93;1.83;;;;;;;;;;5119101;28;20203;-51
2021/01/14 02:02:23;;;;;;;12.05;2.47;;;;;;;;;;5115626;28;20684;-51
2021/01/14 02:04:51;;;;;;;6.95;2.10;;;;;;;;;;5117573;28;20198;-49
2021/01/14 02:07:42;;;;;;;6.45;1.73;;;;;;;;;;5101353;28;20213;-56
2021/01/14 02:10:11;;;;;;;8.30;1.80;;;;;;;;;;5119494;28;20258;-50
2021/01/14 02:12:42;;;;;;;7.43;1.30;;;;;;;;;;5116943;28;20241;-54
2021/01/14 02:15:11;;;;;;;4.80;1.60;;;;;;;;;;5119337;28;20208;-52
2021/01/14 02:17:43;;;;;;;26.00;2.13;;;;;;;;;;5119299;28;20187;-50
2021/01/14 02:20:21;;;;;;;7.90;1.90;;;;;;;;;;5120375;28;20253;-52
2021/01/14 02:23:00;;;;;;;15.85;2.00;;;;;;;;;;5100847;28;20263;-55
2021/01/14 02:25:28;;;;;;;7.00;1.77;;;;;;;;;;5117916;28;20222;-57
2021/01/14 02:27:57;;;;;;;13.23;2.35;;;;;;;;;;5100042;28;20199;-50
2021/01/14 02:30:42;;;;;;;12.02;1.88;;;;;;;;;;5114792;28;20210;-52
2021/01/14 02:33:13;;;;;;;7.40;2.53;;;;;;;;;;5098974;28;20192;-48
2021/01/14 02:35:50;;;;;;;24.83;1.92;;;;;;;;;;5109710;28;20210;-55
2021/01/14 02:38:28;;;;;;;7.07;1.83;;;;;;;;;;5098538;28;20215;-45
2021/01/14 02:40:59;;;;;;;4.40;1.83;;;;;;;;;;5097691;28;20184;-54
2021/01/14 02:43:30;;;;;;;7.75;1.58;;;;;;;;;;5096493;28;20275;-55
2021/01/14 02:45:58;;;;;;;10.38;2.00;;;;;;;;;;5107631;28;20217;-50
2021/01/14 02:48:29;;;;;;;11.38;2.15;;;;;;;;;;5117205;28;20207;-51
2021/01/14 02:51:07;;;;;;;7.55;1.52;;;;;;;;;;5117077;28;20222;-56
2021/01/14 02:53:40;;;;;;;5.43;1.27;;;;;;;;;;5115169;28;20235;-50
2021/01/14 02:56:12;;;;;;;8.32;2.95;;;;;;;;;;5099918;28;20203;-49
2021/01/14 02:58:41;;;;;;;11.38;2.40;;;;;;;;;;5097333;28;20259;-51
2021/01/14 03:01:07;;;;;;;4.78;1.10;;;;;;;;;;5097108;28;20207;-50
2021/01/14 03:03:46;;;;;;;9.40;1.70;;;;;;;;;;5104134;28;20206;-53
2021/01/14 03:06:13;;;;;;;7.18;1.55;;;;;;;;;;5112781;28;20191;-44
2021/01/14 03:08:40;;;;;;;10.18;1.35;;;;;;;;;;5097606;28;20214;-53
2021/01/14 03:11:07;;;;;;;8.57;2.65;;;;;;;;;;5096229;28;20240;-53
2021/01/14 03:13:34;;;;;;;4.90;1.17;;;;;;;;;;5110078;28;20231;-46
2021/01/14 03:16:02;;;;;;;7.75;1.98;;;;;;;;;;5115968;28;20270;-46
2021/01/14 03:18:31;;;;;;;4.40;1.10;;;;;;;;;;5116544;28;20218;-55
2021/01/14 03:20:58;;;;;;;5.53;1.40;;;;;;;;;;5116570;28;20206;-58
2021/01/14 03:23:31;;;;;;;4.25;1.25;;;;;;;;;;5117213;28;20175;-44
2021/01/14 03:26:14;;;;;;;5.15;1.15;;;;;;;;;;5116399;28;20221;-52
2021/01/14 03:28:41;;;;;;;5.60;1.80;;;;;;;;;;5116753;28;20201;-43
2021/01/14 03:31:11;;;;;;;3.13;1.13;;;;;;;;;;5117751;28;20214;-54
2021/01/14 03:33:50;;;;;;;6.38;1.50;;;;;;;;;;5115619;28;20245;-56
2021/01/14 03:36:36;;;;;;;7.85;1.30;;;;;;;;;;5116954;28;20194;-55
2021/01/14 03:39:03;;;;;;;10.57;1.90;;;;;;;;;;5105731;28;20230;-48
2021/01/14 03:41:31;;;;;;;16.70;2.15;;;;;;;;;;5107319;28;20216;-57
2021/01/14 03:43:58;;;;;;;8.05;1.73;;;;;;;;;;5114732;28;20215;-56
2021/01/14 03:46:36;;;;;;;4.20;1.40;;;;;;;;;;5113062;28;20230;-54
2021/01/14 03:49:09;;;;;;;7.53;1.70;;;;;;;;;;5113949;28;20197;-53
2021/01/14 03:51:40;;;;;;;5.85;1.77;;;;;;;;;;5114779;28;20240;-50
2021/01/14 03:54:24;;;;;;;5.55;1.58;;;;;;;;;;5111877;28;20207;-56
2021/01/14 03:59:55;;;;;;;5.25;2.35;;;;;;;;;;5096449;28;20202;-46
2021/01/14 04:02:23;;;;;;;5.00;1.30;;;;;;;;;;5095074;28;20229;-47
2021/01/14 04:05:14;;;;;;;6.82;1.63;;;;;;;;;;5092920;28;20203;-53
2021/01/14 04:07:46;;;;;;;8.73;2.20;;;;;;;;;;5110791;28;20227;-46
2021/01/14 04:10:14;;;;;;;6.85;1.92;;;;;;;;;;5115769;28;20203;-54
2021/01/14 04:12:41;;;;;;;7.90;2.08;;;;;;;;;;5114890;28;20222;-57
2021/01/14 04:15:12;;;;;;;12.07;2.00;;;;;;;;;;5095552;28;20207;-52
2021/01/14 04:17:52;;;;;;;11.27;2.63;;;;;;;;;;5103254;28;20199;-52
2021/01/14 04:20:19;;;;;;;15.52;1.70;;;;;;;;;;5115020;28;20592;-47
2021/01/14 04:23:02;;;;;;;6.47;2.85;;;;;;;;;;5115641;28;20191;-52
2021/01/14 04:25:40;;;;;;;11.52;1.58;;;;;;;;;;5108236;28;20195;-57
2021/01/14 04:28:26;;;;;;;9.52;2.85;;;;;;;;;;5101164;28;20214;-53
2021/01/14 04:31:01;;;;;;;10.05;2.60;;;;;;;;;;5096012;28;20195;-56
2021/01/14 04:36:16;;;;;;;12.30;3.53;;;;;;;;;;5096064;28;20191;-49
2021/01/14 04:38:43;;;;;;;3.90;1.25;;;;;;;;;;5096504;28;20200;-50
2021/01/14 04:44:14;;;;;;;11.13;2.05;;;;;;;;;;5097920;28;20231;-52
2021/01/14 04:46:48;;;;;;;7.75;2.25;;;;;;;;;;5095556;28;20195;-54
2021/01/14 04:49:29;;;;;;;4.80;1.70;;;;;;;;;;5101674;28;20202;-58
2021/01/14 04:52:00;;;;;;;7.97;2.08;;;;;;;;;;5114941;28;20218;-57
2021/01/14 04:54:34;;;;;;;11.07;2.35;;;;;;;;;;5116372;28;20210;-50
2021/01/14 04:57:17;;;;;;;5.72;2.35;;;;;;;;;;5116198;28;20193;-54
2021/01/14 05:02:29;;;;;;;6.90;2.40;;;;;;;;;;5105753;28;20264;-51
2021/01/14 05:05:02;;;;;;;9.82;1.55;;;;;;;;;;5115239;28;20216;-52
2021/01/14 05:07:33;;;;;;;12.63;2.83;;;;;;;;;;5120021;28;20211;-50
2021/01/14 05:10:02;;;;;;;10.10;2.28;;;;;;;;;;5119271;28;20199;-56
2021/01/14 05:12:31;;;;;;;4.70;1.77;;;;;;;;;;5115586;28;20263;-55
2021/01/14 05:15:07;;;;;;;5.28;2.05;;;;;;;;;;5120092;28;20182;-56
2021/01/14 05:17:41;;;;;;;8.23;2.65;;;;;;;;;;5083793;28;20201;-56
2021/01/14 05:20:15;;;;;;;4.88;1.90;;;;;;;;;;5118255;28;20242;-54
2021/01/14 05:22:43;;;;;;;11.20;2.38;;;;;;;;;;5104213;28;20194;-51
2021/01/14 05:25:12;;;;;;;5.45;2.17;;;;;;;;;;5119789;28;20191;-55
2021/01/14 05:27:39;;;;;;;7.15;2.28;;;;;;;;;;5119104;28;20340;-52
2021/01/14 05:30:19;;;;;;;5.85;1.80;;;;;;;;;;5100649;28;20204;-50
2021/01/14 05:38:36;;;;;;;3.65;1.50;;;;;;;;;;5096742;28;20198;-49
2021/01/14 05:41:24;;;;;;;6.53;2.00;;;;;;;;;;5108066;28;20500;-53
2021/01/14 05:43:57;;;;;;;10.00;2.20;;;;;;;;;;5100779;28;20203;-48
2021/01/14 05:46:24;;;;;;;4.45;1.90;;;;;;;;;;5098200;28;20227;-52
2021/01/14 05:48:54;;;;;;;9.90;2.15;;;;;;;;;;5099848;28;20228;-57
2021/01/14 05:51:23;;;;;;;10.98;3.20;;;;;;;;;;5100034;28;20228;-48
2021/01/14 05:53:59;;;;;;;8.68;2.25;;;;;;;;;;5099974;28;20184;-53
2021/01/14 05:56:36;;;;;;;5.50;1.92;;;;;;;;;;5099520;28;20222;-55
2021/01/14 05:59:15;;;;;;;12.20;2.58;;;;;;;;;;5105334;28;20198;-56
2021/01/14 06:01:53;;;;;;;7.15;1.85;;;;;;;;;;5118592;28;20206;-51
2021/01/14 06:04:34;;;;;;;7.90;1.75;;;;;;;;;;5118641;28;20194;-53
2021/01/14 06:07:04;;;;;;;5.18;2.05;;;;;;;;;;5116480;28;20195;-52
2021/01/14 06:09:49;;;;;;;8.65;2.10;;;;;;;;;;5117241;28;20272;-56
2021/01/14 06:12:21;;;;;;;13.50;2.28;;;;;;;;;;5118031;28;20234;-52
2021/01/14 06:14:52;;;;;;;5.05;2.55;;;;;;;;;;5099954;28;20191;-57
2021/01/14 06:17:35;;;;;;;12.35;2.13;;;;;;;;;;5098023;28;20202;-52
2021/01/14 06:20:26;;;;;;;6.60;2.00;;;;;;;;;;5097165;28;20206;-55
2021/01/14 06:25:28;;;;;;;10.17;1.83;;;;;;;;;;5108302;28;20206;-52
2021/01/14 06:28:03;;;;;;;8.50;2.10;;;;;;;;;;5117889;28;20194;-56
2021/01/14 06:30:30;;;;;;;8.18;2.20;;;;;;;;;;5110222;28;20281;-50
2021/01/14 06:33:17;;;;;;;9.32;2.15;;;;;;;;;;5110873;28;20237;-49
2021/01/14 06:35:48;;;;;;;10.70;2.35;;;;;;;;;;5101895;28;20262;-51
2021/01/14 06:38:20;;;;;;;6.75;2.42;;;;;;;;;;5110001;28;20186;-54
2021/01/14 06:40:52;;;;;;;14.20;1.98;;;;;;;;;;5116631;28;20187;-53
2021/01/14 06:43:29;;;;;;;9.00;1.80;;;;;;;;;;5117432;28;20207;-53
2021/01/14 06:46:19;;;;;;;10.07;1.98;;;;;;;;;;5117567;28;20202;-54
2021/01/14 06:49:03;;;;;;;5.68;2.17;;;;;;;;;;5104733;28;20191;-55
2021/01/14 06:51:33;;;;;;;7.85;2.25;;;;;;;;;;5107022;28;20230;-51
2021/01/14 06:54:08;;;;;;;10.90;2.75;;;;;;;;;;5116954;28;20210;-56
2021/01/14 06:56:47;;;;;;;8.38;2.85;;;;;;;;;;5117518;28;20216;-53
2021/01/14 06:59:32;;;;;;;8.30;2.17;;;;;;;;;;5116929;28;20187;-57
2021/01/14 07:02:43;;;;;;;15.65;3.00;;;;;;;;;;5117115;28;20300;-52
2021/01/14 07:05:12;;;;;;;10.15;1.92;;;;;;;;;;5109604;28;20206;-53
2021/01/14 07:07:46;;;;;;;10.07;2.42;;;;;;;;;;5115176;28;20218;-50
2021/01/14 07:10:13;;;;;;;11.82;2.63;;;;;;;;;;5117906;28;20195;-52
2021/01/14 07:12:48;;;;;;;9.50;2.67;;;;;;;;;;5116769;28;20218;-54
2021/01/14 07:15:28;;;;;;;6.40;2.45;;;;;;;;;;5111615;28;20198;-56
2021/01/14 07:18:03;;;;;;;19.70;2.35;;;;;;;;;;5103520;28;20284;-46
2021/01/14 07:20:31;;;;;;;4.28;1.88;;;;;;;;;;5096795;28;20211;-51
2021/01/14 07:23:01;;;;;;;7.38;2.67;;;;;;;;;;5102056;28;20195;-54
2021/01/14 07:28:29;;;;;;;8.05;2.10;;;;;;;;;;5095452;28;20196;-50
2021/01/14 07:31:23;;;;;;;6.85;1.73;;;;;;;;;;5104270;28;20191;-52
2021/01/14 07:34:20;;;;;;;14.32;2.42;;;;;;;;;;5091271;28;20218;-56
2021/01/14 07:36:52;;;;;;;8.88;2.58;;;;;;;;;;5115219;28;20382;-50
2021/01/14 07:39:40;;;;;;;8.45;3.47;;;;;;;;;;5115425;28;20214;-55
2021/01/14 07:42:10;;;;;;;7.25;2.78;;;;;;;;;;5115830;28;20198;-56
2021/01/14 07:47:30;;;;;;;4.15;1.65;;;;;;;;;;5116477;28;20199;-48
2021/01/14 07:50:18;;;;;;;8.07;3.90;;;;;;;;;;5115215;28;20197;-55
2021/01/14 07:52:45;;;;;;;13.00;2.55;;;;;;;;;;5115893;28;20215;-46
2021/01/14 07:55:24;;;;;;;19.48;3.92;;;;;;;;;;5115475;28;20189;-51
2021/01/14 07:58:05;;;;;;;12.77;3.20;;;;;;;;;;5116043;28;20230;-56
2021/01/14 08:00:36;;;;;;;4.93;2.03;;;;;;;;;;5116284;28;20197;-54
2021/01/14 08:03:17;;;;;;;8.30;2.65;;;;;;;;;;5116206;28;20206;-52
2021/01/14 08:05:56;;;;;;;6.75;2.40;;;;;;;;;;5115863;28;20207;-51
2021/01/14 08:08:33;;;;;;;5.18;1.70;;;;;;;;;;5115646;28;20248;-50
2021/01/14 08:11:25;;;;;;;10.52;2.33;;;;;;;;;;5115678;28;20194;-58
2021/01/14 08:14:02;;;;;;;7.72;2.25;;;;;;;;;;5115191;28;20254;-54
2021/01/14 08:16:37;;;;;;;15.30;2.20;;;;;;;;;;5116080;28;20207;-54
2021/01/14 08:19:11;;;;;;;8.32;2.50;;;;;;;;;;5114920;28;20346;-52
2021/01/14 08:21:38;;;;;;;5.90;2.38;;;;;;;;;;5115394;28;20201;-56
2021/01/14 08:24:05;;;;;;;8.18;3.50;;;;;;;;;;5112724;28;20233;-50
2021/01/14 08:26:48;;;;;;;11.23;4.28;;;;;;;;;;5112201;28;20214;-55
2021/01/14 08:29:34;;;;;;;7.88;3.35;;;;;;;;;;5115520;28;20188;-52
2021/01/14 08:32:10;;;;;;;7.40;2.30;;;;;;;;;;5115854;28;20288;-47
2021/01/14 08:35:13;;;;;;;9.00;2.70;;;;;;;;;;5114848;28;20216;-55
2021/01/14 08:37:48;;;;;;;3.92;1.92;;;;;;;;;;5113324;28;20194;-51
2021/01/14 08:40:18;;;;;;;15.55;5.15;;;;;;;;;;5111771;28;20210;-54
2021/01/14 08:43:05;;;;;;;9.30;3.60;;;;;;;;;;5094875;28;20192;-55
2021/01/14 08:45:36;;;;;;;9.88;2.42;;;;;;;;;;5101837;28;20271;-52
2021/01/14 08:48:07;;;;;;;11.27;2.60;;;;;;;;;;5115566;28;20200;-49
2021/01/14 08:50:47;;;;;;;13.25;2.85;;;;;;;;;;5109885;28;20199;-54
2021/01/14 08:53:30;;;;;;;7.85;2.55;;;;;;;;;;5114983;28;20235;-48
2021/01/14 08:56:12;;;;;;;7.88;2.20;;;;;;;;;;5115918;28;20224;-54
2021/01/14 08:58:43;;;;;;;6.20;2.55;;;;;;;;;;5115614;28;20192;-58
2021/01/14 09:01:41;;;;;;;8.20;2.67;;;;;;;;;;5115733;28;20195;-55
2021/01/14 09:04:11;;;;;;;7.28;2.95;;;;;;;;;;5114957;28;20191;-51
2021/01/14 09:06:38;;;;;;;6.97;2.45;;;;;;;;;;5115560;28;20227;-53
2021/01/14 09:09:24;;;;;;;5.63;2.20;;;;;;;;;;5114536;28;20191;-55
2021/01/14 09:11:51;;;;;;;7.10;2.55;;;;;;;;;;5114931;28;20243;-56
2021/01/14 09:17:11;;;;;;;6.13;1.90;;;;;;;;;;5094487;28;20192;-58
2021/01/14 09:19:39;;;;;;;8.48;2.70;;;;;;;;;;5107001;28;20225;-56
2021/01/14 09:22:06;;;;;;;18.50;4.10;;;;;;;;;;5114197;28;20274;-55
2021/01/14 09:24:41;;;;;;;6.25;2.22;;;;;;;;;;5115011;28;20219;-53
2021/01/14 09:27:10;;;;;;;15.48;2.88;;;;;;;;;;5113789;28;20191;-50
2021/01/14 09:29:40;;;;;;;12.68;3.40;;;;;;;;;;5113006;28;20249;-58
2021/01/14 09:32:27;;;;;;;13.73;3.20;;;;;;;;;;5115636;28;20221;-54
2021/01/14 09:35:01;;;;;;;10.40;3.10;;;;;;;;;;5114886;28;20236;-55
2021/01/14 09:37:39;;;;;;;12.68;3.08;;;;;;;;;;5114075;28;20202;-56
2021/01/14 09:40:20;;;;;;;4.88;2.50;;;;;;;;;;5114710;28;20196;-52
2021/01/14 09:42:48;;;;;;;11.02;2.72;;;;;;;;;;5114456;28;20252;-52
2021/01/14 09:45:18;;;;;;;9.45;3.35;;;;;;;;;;5114401;28;20204;-50
2021/01/14 09:47:53;;;;;;;12.65;3.75;;;;;;;;;;5114951;28;20195;-60
2021/01/14 09:50:40;;;;;;;6.68;3.10;;;;;;;;;;5113445;28;20198;-52
2021/01/14 09:53:10;;;;;;;10.25;2.83;;;;;;;;;;5117632;28;20246;-51
2021/01/14 09:55:42;;;;;;;9.70;4.38;;;;;;;;;;5111541;28;20192;-58
2021/01/14 09:58:29;;;;;;;6.20;2.45;;;;;;;;;;5118906;28;20194;-55
2021/01/14 10:01:17;;;;;;;7.82;2.90;;;;;;;;;;5118860;28;20191;-54
2021/01/14 10:04:08;;;;;;;8.90;2.65;;;;;;;;;;5099796;28;20211;-52
2021/01/14 10:06:43;;;;;;;7.68;2.67;;;;;;;;;;5117869;28;20207;-55
2021/01/14 10:09:11;;;;;;;6.97;2.60;;;;;;;;;;5113705;28;20195;-54
2021/01/14 10:11:43;;;;;;;13.45;3.95;;;;;;;;;;5098275;28;20204;-53
2021/01/14 10:14:19;;;;;;;8.88;2.30;;;;;;;;;;5098007;28;20211;-58
2021/01/14 10:16:49;;;;;;;13.75;6.13;;;;;;;;;;5097899;28;20222;-59
2021/01/14 10:19:24;;;;;;;4.53;2.50;;;;;;;;;;5096966;28;20208;-57
2021/01/14 10:21:54;;;;;;;6.20;3.40;;;;;;;;;;5112711;28;20229;-57
2021/01/14 10:24:27;;;;;;;14.07;3.25;;;;;;;;;;5117598;28;20191;-54
2021/01/14 10:26:56;;;;;;;10.23;3.08;;;;;;;;;;5117576;28;20233;-57
2021/01/14 10:29:44;;;;;;;6.78;3.60;;;;;;;;;;5099584;28;20211;-53
2021/01/14 10:32:15;;;;;;;11.05;3.03;;;;;;;;;;5116344;28;20625;-58
2021/01/14 10:34:51;;;;;;;8.07;3.95;;;;;;;;;;5116304;28;20660;-58
2021/01/14 10:37:29;;;;;;;6.50;2.97;;;;;;;;;;5114720;28;20226;-56
2021/01/14 10:40:05;;;;;;;7.57;2.33;;;;;;;;;;5116833;28;20186;-54
2021/01/14 10:43:01;;;;;;;7.10;2.40;;;;;;;;;;5116789;28;20190;-47
2021/01/14 10:45:35;;;;;;;3.72;2.42;;;;;;;;;;5101997;28;20188;-54
2021/01/14 10:48:22;;;;;;;5.20;2.50;;;;;;;;;;5096945;28;20191;-56
2021/01/14 10:50:50;;;;;;;10.18;3.30;;;;;;;;;;5098145;28;20193;-52
2021/01/14 10:53:32;;;;;;;7.35;2.15;;;;;;;;;;5096790;28;20245;-55
2021/01/14 10:56:03;;;;;;;9.90;3.00;;;;;;;;;;5096933;28;20222;-54
2021/01/14 10:58:32;;;;;;;5.22;2.25;;;;;;;;;;5096826;28;20263;-50
2021/01/14 11:04:09;;;;;;;4.35;2.33;;;;;;;;;;5094949;28;20198;-55
2021/01/14 11:06:39;;;;;;;5.45;2.80;;;;;;;;;;5096717;28;20211;-57
2021/01/14 11:09:11;;;;;;;12.45;2.72;;;;;;;;;;5098982;28;20209;-48
2021/01/14 11:14:17;;;;;;;7.95;2.70;;;;;;;;;;5114016;28;20293;-54
2021/01/14 11:16:55;;;;;;;5.30;2.70;;;;;;;;;;5115580;28;20228;-57
2021/01/14 11:19:49;;;;;;;4.78;2.15;;;;;;;;;;5110711;28;20200;-53
2021/01/14 11:22:21;;;;;;;4.25;2.20;;;;;;;;;;5096446;28;20189;-52
2021/01/14 11:24:52;;;;;;;4.10;2.33;;;;;;;;;;5097640;28;20206;-54
2021/01/14 11:27:20;;;;;;;6.00;2.70;;;;;;;;;;5094729;28;20216;-56
2021/01/14 11:29:47;;;;;;;8.68;2.45;;;;;;;;;;5096020;28;20195;-55
2021/01/14 11:32:25;;;;;;;6.63;2.75;;;;;;;;;;5095431;28;20218;-55
2021/01/14 11:34:55;;;;;;;7.57;3.78;;;;;;;;;;5095621;28;20219;-55
2021/01/14 11:37:28;;;;;;;7.10;4.15;;;;;;;;;;5095784;28;20222;-50
2021/01/14 11:39:57;;;;;;;7.18;2.88;;;;;;;;;;5094564;28;20208;-54
2021/01/14 11:42:31;;;;;;;15.93;8.15;;;;;;;;;;5095143;28;20214;-57
2021/01/14 11:44:58;;;;;;;5.85;3.58;;;;;;;;;;5092186;28;20201;-51
2021/01/14 11:47:35;;;;;;;17.90;7.95;;;;;;;;;;5098226;28;20343;-50
2021/01/14 11:50:02;;;;;;;11.25;3.85;;;;;;;;;;5114981;28;20177;-58
2021/01/14 11:52:40;;;;;;;7.25;3.08;;;;;;;;;;5114798;28;20204;-62
2021/01/14 11:55:15;;;;;;;8.05;3.70;;;;;;;;;;5112366;28;20207;-53
2021/01/14 11:57:42;;;;;;;7.30;3.53;;;;;;;;;;5099137;28;20302;-55
2021/01/14 12:00:10;;;;;;;4.07;2.17;;;;;;;;;;5094254;28;20203;-56
2021/01/14 12:02:44;;;;;;;4.60;2.83;;;;;;;;;;5100998;28;20185;-57
2021/01/14 12:05:13;;;;;;;8.73;3.15;;;;;;;;;;5112334;28;20233;-53
2021/01/14 12:07:53;;;;;;;11.68;3.75;;;;;;;;;;5114867;28;20451;-56
2021/01/14 12:10:21;;;;;;;16.35;3.65;;;;;;;;;;5114830;28;20211;-52
2021/01/14 12:12:49;;;;;;;10.77;3.78;;;;;;;;;;5108528;28;20208;-56
2021/01/14 12:15:19;;;;;;;9.88;3.63;;;;;;;;;;5092046;28;20239;-54
2021/01/14 12:17:47;;;;;;;5.15;2.60;;;;;;;;;;5094693;28;20225;-55
2021/01/14 12:20:21;;;;;;;9.00;4.45;;;;;;;;;;5094317;28;20207;-57
2021/01/14 12:22:54;;;;;;;8.82;3.45;;;;;;;;;;5094027;28;20212;-53
2021/01/14 12:25:25;;;;;;;4.55;2.45;;;;;;;;;;5094177;28;20212;-55
2021/01/14 12:27:52;;;;;;;7.68;2.90;;;;;;;;;;5109929;28;20216;-55
2021/01/14 12:30:21;;;;;;;7.88;2.88;;;;;;;;;;5102206;28;20189;-52
2021/01/14 12:32:52;;;;;;;5.32;2.67;;;;;;;;;;5104409;28;20462;-52
2021/01/14 12:35:29;;;;;;;12.25;2.83;;;;;;;;;;5098296;28;20240;-51
2021/01/14 12:38:10;;;;;;;6.53;2.63;;;;;;;;;;5098602;28;20232;-49
2021/01/14 12:40:38;;;;;;;7.40;2.70;;;;;;;;;;5075191;28;20219;-57
2021/01/14 12:43:06;;;;;;;5.25;2.65;;;;;;;;;;5116223;28;20643;-51
2021/01/14 12:45:41;;;;;;;9.88;4.10;;;;;;;;;;5106016;28;20200;-52
2021/01/14 12:50:57;;;;;;;7.47;2.75;;;;;;;;;;5095916;28;20208;-55
2021/01/14 12:53:24;;;;;;;4.63;2.10;;;;;;;;;;5099027;28;20246;-50
2021/01/14 12:55:52;;;;;;;9.25;2.40;;;;;;;;;;5107269;28;20200;-50
2021/01/14 12:58:33;;;;;;;5.93;3.15;;;;;;;;;;5104334;28;20220;-53
2021/01/14 13:01:04;;;;;;;7.55;3.78;;;;;;;;;;5093924;28;20203;-58
2021/01/14 13:06:45;;;;;;;4.78;2.97;;;;;;;;;;5093935;28;20312;-51
2021/01/14 13:09:24;;;;;;;8.48;2.90;;;;;;;;;;5112455;28;20208;-56
2021/01/14 13:12:01;;;;;;;6.60;3.70;;;;;;;;;;5104742;28;20217;-58
2021/01/14 13:14:28;;;;;;;7.40;3.15;;;;;;;;;;5112887;28;20289;-48
2021/01/14 13:16:56;;;;;;;7.80;2.95;;;;;;;;;;5114844;28;20204;-53
2021/01/14 13:19:24;;;;;;;9.40;2.33;;;;;;;;;;5110926;28;20218;-59
2021/01/14 13:21:52;;;;;;;5.40;2.63;;;;;;;;;;5115153;28;20199;-50
2021/01/14 13:24:32;;;;;;;13.55;5.53;;;;;;;;;;5099564;28;20211;-50
2021/01/14 13:27:16;;;;;;;5.18;2.45;;;;;;;;;;5097160;28;20203;-53
2021/01/14 13:29:52;;;;;;;6.20;2.85;;;;;;;;;;5103650;28;20200;-49
2021/01/14 13:32:23;;;;;;;12.48;3.67;;;;;;;;;;5111330;28;20240;-53
2021/01/14 13:34:56;;;;;;;7.68;3.33;;;;;;;;;;5113193;28;20248;-51
2021/01/14 13:37:26;;;;;;;7.75;2.35;;;;;;;;;;5108252;28;20270;-53
2021/01/14 13:39:53;;;;;;;9.98;3.97;;;;;;;;;;5095844;28;20209;-55
2021/01/14 13:42:40;;;;;;;7.78;4.40;;;;;;;;;;5097362;28;20196;-54
2021/01/14 13:45:14;;;;;;;6.63;3.33;;;;;;;;;;5117198;28;20204;-53
2021/01/14 13:47:48;;;;;;;6.40;3.17;;;;;;;;;;5118633;28;20207;-52
2021/01/14 13:50:17;;;;;;;10.30;5.70;;;;;;;;;;5103853;28;20200;-57
2021/01/14 13:52:45;;;;;;;4.50;2.72;;;;;;;;;;5098413;28;20228;-53
2021/01/14 13:55:15;;;;;;;7.43;3.30;;;;;;;;;;5100344;28;20208;-53
2021/01/14 13:57:53;;;;;;;9.23;3.05;;;;;;;;;;5099013;28;20430;-53
2021/01/14 14:00:26;;;;;;;7.28;3.03;;;;;;;;;;5098494;28;20208;-49
2021/01/14 14:02:57;;;;;;;4.90;2.92;;;;;;;;;;5117243;28;20239;-47
2021/01/14 14:05:25;;;;;;;3.88;2.40;;;;;;;;;;5101211;28;20216;-57
2021/01/14 14:08:10;;;;;;;10.07;3.00;;;;;;;;;;5103312;28;20226;-58
2021/01/14 14:10:40;;;;;;;12.48;5.57;;;;;;;;;;5107987;28;20238;-52
2021/01/14 14:16:19;;;;;;;5.15;2.20;;;;;;;;;;5089996;28;20215;-55
2021/01/14 14:18:46;;;;;;;5.35;2.63;;;;;;;;;;5101586;28;20197;-53
2021/01/14 14:21:22;;;;;;;7.13;3.42;;;;;;;;;;5096986;28;20211;-52
2021/01/14 14:24:03;;;;;;;10.10;3.80;;;;;;;;;;5098688;28;20239;-54
2021/01/14 14:26:32;;;;;;;4.35;2.90;;;;;;;;;;5100074;28;20205;-50
2021/01/14 14:29:01;;;;;;;5.32;2.90;;;;;;;;;;5098270;28;20204;-53
2021/01/14 14:31:33;;;;;;;5.90;3.05;;;;;;;;;;5099464;28;20204;-49
2021/01/14 14:34:38;;;;;;;3.70;2.20;;;;;;;;;;5115239;28;20210;-56
2021/01/14 14:37:11;;;;;;;8.27;3.67;;;;;;;;;;5102161;28;20191;-58
2021/01/14 14:45:17;;;;;;;4.40;2.80;;;;;;;;;;5101029;28;20204;-52
2021/01/14 14:47:57;;;;;;;5.07;2.13;;;;;;;;;;5104339;28;20196;-53
2021/01/14 14:50:27;;;;;;;7.85;2.75;;;;;;;;;;5103169;28;21812;-54
2021/01/14 14:53:00;;;;;;;7.50;3.00;;;;;;;;;;5114599;28;20246;-54
2021/01/14 14:55:40;;;;;;;8.43;2.40;;;;;;;;;;5112480;28;21075;-52
2021/01/14 14:58:12;;;;;;;10.00;3.22;;;;;;;;;;5102511;28;20192;-52
2021/01/14 15:00:43;;;;;;;7.93;4.30;;;;;;;;;;5097812;28;20210;-50
2021/01/14 15:06:23;;;;;;;7.95;2.75;;;;;;;;;;5094613;28;20215;-53
2021/01/14 15:08:54;;;;;;;7.13;2.00;;;;;;;;;;5112618;28;20296;-52
2021/01/14 15:11:21;;;;;;;4.40;2.20;;;;;;;;;;5106568;28;20253;-54
2021/01/14 15:14:21;;;;;;;5.63;2.95;;;;;;;;;;5099385;28;20250;-51
2021/01/14 15:17:00;;;;;;;7.47;3.38;;;;;;;;;;5096015;28;20215;-58
2021/01/14 15:22:35;;;;;;;8.43;2.70;;;;;;;;;;5092863;28;20203;-54
2021/01/14 15:25:26;;;;;;;5.18;2.00;;;;;;;;;;5093008;28;20199;-55
2021/01/14 15:30:56;;;;;;;8.85;2.80;;;;;;;;;;5109400;28;20275;-50
2021/01/14 15:33:32;;;;;;;4.32;2.50;;;;;;;;;;5114089;28;20277;-54
2021/01/14 15:36:16;;;;;;;5.82;2.97;;;;;;;;;;5110906;28;20240;-57
2021/01/14 15:38:59;;;;;;;15.73;5.55;;;;;;;;;;5113589;28;20277;-58
2021/01/14 15:41:41;;;;;;;4.25;2.20;;;;;;;;;;5123235;28;20212;-53
2021/01/14 15:44:14;;;;;;;6.95;3.45;;;;;;;;;;5094019;28;20199;-56
2021/01/14 15:46:42;;;;;;;6.43;2.90;;;;;;;;;;5093811;28;20207;-53
2021/01/14 15:49:11;;;;;;;7.57;2.60;;;;;;;;;;5092996;28;20245;-53
2021/01/14 15:51:41;;;;;;;5.72;2.35;;;;;;;;;;5094931;28;20211;-55
2021/01/14 15:54:20;;;;;;;4.18;2.20;;;;;;;;;;5095332;28;20215;-49
2021/01/14 15:59:35;;;;;;;4.97;2.37;;;;;;;;;;5112315;28;20464;-53
2021/01/14 16:02:06;;;;;;;4.30;2.40;;;;;;;;;;5093097;28;20227;-54
2021/01/14 16:04:45;;;;;;;9.85;4.47;;;;;;;;;;5099709;28;20234;-49
2021/01/14 16:07:15;;;;;;;3.85;2.10;;;;;;;;;;5094967;28;20397;-51
2021/01/14 16:10:03;;;;;;;6.15;2.80;;;;;;;;;;5093591;28;20304;-51
2021/01/14 16:15:22;;;;;;;7.10;2.97;;;;;;;;;;5095840;28;20230;-53
2021/01/14 16:17:56;;;;;;;11.55;3.65;;;;;;;;;;5095246;28;20192;-57
2021/01/14 16:20:25;;;;;;;4.10;2.60;;;;;;;;;;5102144;28;20208;-58
2021/01/14 16:22:53;;;;;;;4.47;2.28;;;;;;;;;;5096292;28;20207;-50
2021/01/14 16:25:27;;;;;;;6.55;3.90;;;;;;;;;;5095227;28;20199;-55
2021/01/14 16:30:48;;;;;;;5.50;3.50;;;;;;;;;;5092122;28;20265;-49
2021/01/14 16:36:17;;;;;;;3.10;1.88;;;;;;;;;;5096964;28;20276;-52
2021/01/14 16:38:49;;;;;;;9.07;4.05;;;;;;;;;;5100816;28;20198;-59
2021/01/14 16:41:33;;;;;;;5.18;2.90;;;;;;;;;;5095279;28;20202;-53